Aeroporto :
LOGIN :

Iscrizione | Disclaimer

   EN    FR    IT 

 










Sommario :    VFR   VFR Marginale   IFR   IFR Intensivo   IFR Molto Intensivo
Visibilità : 
Base nubi : 
>= 8 km
>= 3000ft
5 / 8 km
1000 / 3000 ft
1500m / 5 km
500 / 1000 ft
800 / 1500m
200 / 500 ft
< 800m
< 200 ft
Simboli :   Temporali  Nebbia  Neve Forte  Precipitazioni Forti  Vento > 20 kt
SIGMETs :   Varie  Temporali  Ghiacco  Turbolenza  Onda orograficha  Ceneri Vulcaniche






- Altitudine del aeroporto : 443 ft
- Codice IATA : SQQ


EYSA - Siauliai

ULTIMO METAR :
  • 090650Z 21008KT 9999 -SHRA SCT061CB BKN069 08/02 Q1012 BLU NOSIG

METARs OBSOLETI :
  • 090620Z 19010KT 9999 VCSH FEW042CB OVC058 07/02 Q1013 BLU TEMPO SCT020 WHT
  • 090550Z 21009KT 9999 -SHRA BKN055CB OVC072 07/01 Q1013 BLU NOSIG
  • 090520Z 19008KT CAVOK 07/01 Q1013 BLU NOSIG
  • 090450Z 19007KT CAVOK 07/01 Q1014 BLU NOSIG
  • 090420Z 22008KT 9999 BKN049 BKN080 07/01 Q1014 BLU NOSIG

TAF TAF EYSA
Valido dal 09 a 06 ore il 09 a 15 ore UTC


090505Z 0906/0915 21010KT 9000 BKN045
TEMPO 0906/0909 27010KT SHRA SCT030CB
BECMG 0909/0910 27016G26KT
TEMPO 0912/0915 33010KT SCT015CB



MetMap, La meteo Aeronautica in un colpo d'occhio ! - Copyright ORBIFLY Dicembre 2007 - Disclaimer

ORBIFLY MET'MAP TEAM :

Programmazione e sviluppo : Alexandra Zaïnal
Concezione : Baudouin d'Aumeries
Aiuto per la programmazione : Marc-Olivier Méhu
Supporto tecnico e logistico : Manuel Goepfert
Aiuto per la traduzione : Arnaldo La Scala

Contatto : metmap@orbifly.com




FONTI E CREDITI :

   NOAA